Hovedside
METAR-TAF:

METAR-TAF

Lufthavner :

Kairo, Egypt

breddegrad: 30-08N, lengdegrad: 031-24E, høyde over havet: 64 m

Gjeldene værobservasjon

Denne rapporten ble laget for 22 minutter siden, klokken 04:30 UTC
Vind 4 kt fra Øst-nordøst
Temperatur 26°C
Luftfuktighet 65%
Trykk 1015 hPa
Sikt 10 km eller mer
ingen skyer under 1500 m og ingen bygeskyer

METAR: HECA 210430Z 07004KT CAVOK 26/19 Q1015 NOSIG

Tid: 06:52 (04:52 UTC)

Varsel

Denne rapporten ble laget for 5 timer og 52 minutter siden, klokken 23:00 UTC
Varsel gyldig fra 21. klokken 00 UTC til 22. klokken 06 UTC
Vind 10 kt fra Nordøst
Sikt 10 km eller mer
ingen skyer under 1500 m og ingen bygeskyer
Midlertidig
fra 21. klokken 00 UTC til 21. klokken 08 UTC
Vind 3 kt fra skiftende retning
Sikt: 6000 m

TAF: HECA 202300Z 2100/2206 05010KT CAVOK TEMPO 2100/2108 VRB03KT 6000 NSC

Værobservasjoner og værvarsel for over 4000 flyplasser (METAR- og TAF-rapporter).

Tilgjengelige stasjoner er representert av de røde og gule prikkene på kartet.

Hold musepekeren over prikken for å se navnet på stasjonen.

Klikk så for å se værobservasjoner og -varsler.

For å forandre kartet kan du klikke på den grønne knappen med svart kryss for å zoome inn, på den grønne knappen med strek for å zoome ut, eller på de grønne pilene for å se tilstøtende kart.


METAR-TAF: